Terminal Aerodrome Forecast
Issued by NWS Upton, NY

Current Version | Previous Version | Text Only | Print | Product List | Glossary On
Versions: 1 2 3 4 5 6 7 8 9 10 11 12 13 14 15 16 17 18 19 20 21 22 23 24 25 26 27 28 29 30 31 32 33 34 35 36 37 38 39
000
FTUS41 KOKX 302328
TAFISP
TAF
KISP 302328Z 3100/3124 16008KT P6SM FEW060 BKN120
     FM310300 15007KT P6SM VCSH BKN050
     FM311000 11009KT 5SM -RA OVC015
     FM311400 11015G22KT 2SM -RA OVC006
     FM311800 09019G28KT 2SM RA OVC004=

USA.gov is the U.S. government's official web portal to all federal, state and local government web resources and services.